Saint Anthony, Canada
Current Conditions -  °F | °C
As of 1:13 AM on Sunday 26 Oct 2014 (Local Time) from CYAY Reporting Station
Overcast Overcast  
Wind Chill: 27°   Ceiling: 2500
Heat Index: 37°   Visibility: 9mi
Dew Point: 32°   Wind: 18mph
Humidity: 81%   Direction: 40°NE
Pressure: 29.74"   Gusts: NA
Location:  51.48°N, 55.81°W
Report Text: CYAY 260313Z AUTO 04016KT 9SM BKN025 OVC034 03/00 A2974 RMK SLP073
Loading
Personal Weather Stations






























Interactive Weather Map
Tropical Storm Tracking
New forecast layout! Learn more

10-Day Weather Forecast

Advertisements
Track Severe Weather on mobile